createdAt,value
2019-01-18T00:00:18.271Z,2.2
2019-01-18T00:05:15.448Z,2.1
2019-01-18T00:10:13.136Z,1.8
2019-01-18T00:15:10.251Z,2.1
2019-01-18T00:20:07.373Z,2
2019-01-18T00:25:03.933Z,2
2019-01-18T00:30:01.245Z,0.6
2019-01-18T00:34:58.169Z,-0.2
2019-01-18T00:39:55.279Z,0.3
2019-01-18T00:44:52.505Z,2
2019-01-18T00:49:49.332Z,2
2019-01-18T00:54:46.416Z,1.9
2019-01-18T00:59:43.492Z,1.9
2019-01-18T01:04:40.590Z,1.8
2019-01-18T01:09:37.711Z,1.1
2019-01-18T01:14:34.669Z,1.6
2019-01-18T01:19:31.771Z,1.6
2019-01-18T01:24:28.929Z,1.7
2019-01-18T01:29:26.044Z,1.7
2019-01-18T01:34:23.285Z,1.6
2019-01-18T01:39:20.468Z,1.6
2019-01-18T01:44:17.426Z,1.6
2019-01-18T01:49:14.436Z,1.5
2019-01-18T01:54:11.488Z,0.7
2019-01-18T01:59:08.684Z,1.4
2019-01-18T02:04:05.833Z,1
2019-01-18T02:09:02.918Z,1
2019-01-18T02:13:59.930Z,1.3
2019-01-18T02:18:56.875Z,1.1
2019-01-18T02:23:53.901Z,0.9
2019-01-18T02:28:51.054Z,0.9
2019-01-18T02:33:48.321Z,0.8
2019-01-18T02:38:45.550Z,0.9
2019-01-18T02:43:42.627Z,0.8
2019-01-18T02:48:39.736Z,0.8
2019-01-18T02:53:36.467Z,0.7
2019-01-18T02:58:33.665Z,0.8
2019-01-18T03:03:30.577Z,0.9
2019-01-18T03:08:27.615Z,0.9
2019-01-18T03:13:24.611Z,0.8
2019-01-18T03:18:21.937Z,0.9
2019-01-18T03:23:18.759Z,0.8
2019-01-18T03:28:15.892Z,0.5
2019-01-18T03:33:12.957Z,0.8
2019-01-18T03:38:09.947Z,0.7
2019-01-18T03:43:06.848Z,0.7
2019-01-18T03:48:03.773Z,0.1
2019-01-18T03:53:00.520Z,0.6
2019-01-18T03:57:57.734Z,0.6
2019-01-18T04:02:55.595Z,0.5
2019-01-18T04:07:52.868Z,0.3
2019-01-18T04:12:49.911Z,0.5
2019-01-18T04:17:47.090Z,0.4
2019-01-18T04:22:44.145Z,0.4
2019-01-18T04:27:41.002Z,0.6
2019-01-18T04:32:38.029Z,0.6
2019-01-18T04:37:35.765Z,0.5
2019-01-18T04:42:32.666Z,0.5
2019-01-18T04:47:30.325Z,0.5
2019-01-18T04:52:28.105Z,0.6
2019-01-18T04:57:24.122Z,0.5
2019-01-18T05:02:21.205Z,0.5
2019-01-18T05:07:18.945Z,0.3
2019-01-18T05:12:16.155Z,0.3
2019-01-18T05:17:13.282Z,0.2
2019-01-18T05:22:10.425Z,-0.8
2019-01-18T05:27:07.577Z,-0.1
2019-01-18T05:32:04.499Z,-0.3
2019-01-18T05:37:01.539Z,-4.1
2019-01-18T05:41:58.288Z,-0.4
2019-01-18T05:46:54.951Z,-0.4
2019-01-18T05:51:51.644Z,-1.3
2019-01-18T05:56:48.425Z,-0.4
2019-01-18T06:01:45.323Z,-0.2
2019-01-18T06:06:42.370Z,-0.2
2019-01-18T06:11:39.637Z,-1.2
2019-01-18T06:16:37.307Z,-0.3
2019-01-18T06:21:34.196Z,-0.3
2019-01-18T06:26:31.352Z,-1.2
2019-01-18T06:31:28.088Z,-1.2
2019-01-18T06:36:25.258Z,-1.1
2019-01-18T06:41:22.346Z,-0.1
2019-01-18T06:46:19.906Z,-0.2
2019-01-18T06:51:17.292Z,-0.2
2019-01-18T06:56:14.603Z,-0.2
2019-01-18T07:01:11.539Z,-0.2
2019-01-18T07:06:08.967Z,-0.4
2019-01-18T07:11:06.054Z,-0.2
2019-01-18T07:16:03.824Z,-0.2
2019-01-18T07:21:00.776Z,-1.7
2019-01-18T07:25:57.895Z,-0.1
2019-01-18T07:30:54.866Z,-0.2
2019-01-18T07:35:51.645Z,-0.2
2019-01-18T07:40:48.486Z,-0.1
2019-01-18T07:45:45.664Z,-0.1
2019-01-18T07:50:42.700Z,0.1
2019-01-18T07:55:40.047Z,0.2
2019-01-18T08:00:37.331Z,0.1
2019-01-18T08:05:34.351Z,0.2
2019-01-18T08:10:31.329Z,0.3
2019-01-18T08:15:28.553Z,0.5
2019-01-18T08:20:25.542Z,0.7
2019-01-18T08:25:22.842Z,0.9
2019-01-18T08:30:20.053Z,1
2019-01-18T08:35:17.126Z,1.1
2019-01-18T08:40:14.333Z,1.1
2019-01-18T08:45:11.682Z,1.2
2019-01-18T08:50:08.666Z,1.4
2019-01-18T08:55:05.976Z,1.6
2019-01-18T09:00:03.111Z,1.7
2019-01-18T09:05:00.590Z,1.8
2019-01-18T09:09:57.370Z,2
2019-01-18T09:14:54.689Z,2
2019-01-18T09:19:51.720Z,1.9
2019-01-18T09:24:48.596Z,2.2
2019-01-18T09:29:45.635Z,2.3
2019-01-18T09:34:42.944Z,2.3
2019-01-18T09:39:39.851Z,2.3
2019-01-18T09:44:36.792Z,2.4
2019-01-18T09:49:33.624Z,2.4
2019-01-18T09:54:30.511Z,2.5
2019-01-18T09:59:27.802Z,2.4
2019-01-18T10:04:24.950Z,2.4
2019-01-18T10:09:21.993Z,2.3
2019-01-18T10:14:19.009Z,2.4
2019-01-18T10:19:15.995Z,2.5
2019-01-18T10:24:12.931Z,2.5
2019-01-18T10:29:09.957Z,2.5
2019-01-18T10:34:07.014Z,2.6
2019-01-18T10:39:03.993Z,2.6
2019-01-18T10:44:05.899Z,2.3
2019-01-18T10:48:57.715Z,2.4
2019-01-18T10:53:55.214Z,1.9
2019-01-18T10:58:52.078Z,2.9
2019-01-18T11:03:49.421Z,3
2019-01-18T11:08:46.599Z,3.1
2019-01-18T11:13:43.751Z,3.2
2019-01-18T11:18:40.816Z,3.2
2019-01-18T11:23:37.939Z,3.2
2019-01-18T11:28:35.069Z,3.3
2019-01-18T11:33:32.383Z,3.4
2019-01-18T11:38:29.371Z,3.4
2019-01-18T11:43:26.159Z,3.5
2019-01-18T11:48:22.644Z,3.6
2019-01-18T11:53:19.734Z,3.5
2019-01-18T11:58:16.644Z,3.8
2019-01-18T12:03:14.072Z,3.2
2019-01-18T12:08:11.258Z,4.2
2019-01-18T12:13:08.122Z,3.7
2019-01-18T12:18:05.338Z,4.7
2019-01-18T12:23:02.868Z,4.1
2019-01-18T12:28:00.206Z,4.9
2019-01-18T12:32:57.374Z,5
2019-01-18T12:37:54.630Z,5
2019-01-18T12:42:51.856Z,5
2019-01-18T12:47:48.869Z,5.1
2019-01-18T12:52:46.327Z,5.1
2019-01-18T12:57:43.254Z,5.1
2019-01-18T13:02:40.487Z,5.3
2019-01-18T13:07:37.704Z,5.3
2019-01-18T13:12:34.998Z,5.3
2019-01-18T13:17:31.824Z,5.3
2019-01-18T13:22:29.039Z,5.3
2019-01-18T13:27:25.962Z,5.3
2019-01-18T13:32:23.084Z,5.4
2019-01-18T13:37:20.204Z,5.5
2019-01-18T13:42:17.173Z,5.5
2019-01-18T13:47:18.192Z,5.5
2019-01-18T13:52:11.216Z,5.5
2019-01-18T13:57:12.157Z,5.4
2019-01-18T14:02:05.384Z,5.4
2019-01-18T14:07:02.651Z,5.3
2019-01-18T14:11:59.772Z,5.3
2019-01-18T14:16:56.704Z,5.3
2019-01-18T14:21:53.835Z,5.3
2019-01-18T14:26:50.699Z,5.4
2019-01-18T14:31:47.950Z,5.4
2019-01-18T14:36:45.130Z,5.4
2019-01-18T14:41:42.278Z,5.4
2019-01-18T14:46:39.273Z,5.4
2019-01-18T14:51:35.863Z,5.3
2019-01-18T14:56:33.161Z,5.2
2019-01-18T15:01:30.358Z,5.1
2019-01-18T15:06:27.780Z,5.1
2019-01-18T15:11:24.688Z,5
2019-01-18T15:16:21.739Z,5
2019-01-18T15:21:18.876Z,4.9
2019-01-18T15:26:18.449Z,4.9
2019-01-18T15:31:12.875Z,5
2019-01-18T15:36:10.150Z,4.9
2019-01-18T15:41:07.353Z,4
2019-01-18T15:46:04.323Z,4.8
2019-01-18T15:51:01.633Z,4.8
2019-01-18T15:55:58.524Z,4.8
2019-01-18T16:00:55.684Z,4.7
2019-01-18T16:05:52.687Z,4.7
2019-01-18T16:10:49.815Z,4.6
2019-01-18T16:15:46.363Z,4.6
2019-01-18T16:20:43.807Z,4.6
2019-01-18T16:25:40.796Z,4.5
2019-01-18T16:30:37.850Z,4.5
2019-01-18T16:35:34.771Z,4.5
2019-01-18T16:40:31.951Z,4.6
2019-01-18T16:45:28.776Z,4.5
2019-01-18T16:50:25.576Z,4.5
2019-01-18T16:55:23.026Z,4.5
2019-01-18T17:00:20.078Z,4.5
2019-01-18T17:05:16.932Z,4.4
2019-01-18T17:10:13.959Z,4.3
2019-01-18T17:15:10.940Z,4.3
2019-01-18T17:20:08.570Z,4.4
2019-01-18T17:25:05.462Z,4.5
2019-01-18T17:30:02.739Z,4.4
2019-01-18T17:34:59.386Z,4.4
2019-01-18T17:39:56.766Z,3.6
2019-01-18T17:44:54.017Z,4.5
2019-01-18T17:49:51.083Z,4.4
2019-01-18T17:54:48.106Z,4.3
2019-01-18T17:59:45.218Z,4.4
2019-01-18T18:04:42.415Z,4.5
2019-01-18T18:09:39.610Z,4.5
2019-01-18T18:14:36.689Z,4.4
2019-01-18T18:19:33.669Z,4.4
2019-01-18T18:24:30.567Z,4.5
2019-01-18T18:29:27.680Z,4.5
2019-01-18T18:34:24.899Z,4.4
2019-01-18T18:39:22.106Z,4.4
2019-01-18T18:44:19.510Z,4.2
2019-01-18T18:49:16.388Z,4.4
2019-01-18T18:54:13.225Z,4.5
2019-01-18T18:59:10.349Z,4.4
2019-01-18T19:04:07.231Z,4.4
2019-01-18T19:09:04.427Z,4.5
2019-01-18T19:14:01.068Z,4.4
2019-01-18T19:18:58.093Z,4.4
2019-01-18T19:23:55.501Z,4.5
2019-01-18T19:28:52.199Z,4.5
2019-01-18T19:33:48.674Z,4.5
2019-01-18T19:38:45.729Z,4.5
2019-01-18T19:43:43.036Z,4.5
2019-01-18T19:48:40.236Z,4.5
2019-01-18T19:53:37.361Z,4.4
2019-01-18T19:58:34.308Z,4.4
2019-01-18T20:03:31.436Z,4.5
2019-01-18T20:08:28.461Z,4.4
2019-01-18T20:13:25.639Z,4.5
2019-01-18T20:18:22.892Z,4.4
2019-01-18T20:23:19.875Z,4.4
2019-01-18T20:28:17.216Z,4.4
2019-01-18T20:33:14.103Z,4.4
2019-01-18T20:38:11.090Z,4.4
2019-01-18T20:43:08.921Z,4.4
2019-01-18T20:48:06.294Z,4.4
2019-01-18T20:53:03.157Z,4.2
2019-01-18T20:58:00.264Z,4.5
2019-01-18T21:02:57.335Z,4.5
2019-01-18T21:07:54.678Z,4.5
2019-01-18T21:12:51.447Z,4.2
2019-01-18T21:17:48.357Z,4.5
2019-01-18T21:22:45.294Z,4.5
2019-01-18T21:27:42.319Z,4.5
2019-01-18T21:32:39.260Z,4.6
2019-01-18T21:37:36.622Z,4.6
2019-01-18T21:42:33.794Z,3.8
2019-01-18T21:47:30.954Z,4.6
2019-01-18T21:52:27.982Z,4.6
2019-01-18T21:57:25.093Z,4.6
2019-01-18T22:02:22.099Z,4.6
2019-01-18T22:07:19.263Z,4.5
2019-01-18T22:12:16.255Z,4.5
2019-01-18T22:17:13.634Z,4.5
2019-01-18T22:22:10.787Z,4.5
2019-01-18T22:27:07.910Z,4.5
2019-01-18T22:32:04.857Z,4.4
2019-01-18T22:37:01.897Z,4.5
2019-01-18T22:41:58.960Z,4.3
2019-01-18T22:46:56.057Z,4.2
2019-01-18T22:51:53.023Z,4.1
2019-01-18T22:56:50.099Z,3.1
2019-01-18T23:01:47.326Z,3.9
2019-01-18T23:06:44.595Z,3.9
2019-01-18T23:11:41.499Z,3.9
2019-01-18T23:16:38.596Z,4
2019-01-18T23:21:35.629Z,4
2019-01-18T23:26:32.318Z,4
2019-01-18T23:31:29.367Z,4.1
2019-01-18T23:36:26.494Z,4.1
2019-01-18T23:41:23.631Z,4
2019-01-18T23:46:20.727Z,3.9
2019-01-18T23:51:17.781Z,3.8
2019-01-18T23:56:15.031Z,3.7
